createdAt,value
2023-04-18T00:00:39.130Z,99.40
2023-04-18T00:03:06.498Z,99.90
2023-04-18T00:05:33.672Z,99.50
2023-04-18T00:08:00.646Z,99.70
2023-04-18T00:10:27.704Z,99.60
2023-04-18T00:12:54.709Z,99.90
2023-04-18T00:15:21.661Z,99.90
2023-04-18T00:17:48.852Z,99.80
2023-04-18T00:20:16.185Z,99.60
2023-04-18T00:22:43.925Z,99.90
2023-04-18T00:25:11.223Z,99.70
2023-04-18T00:27:41.910Z,99.50
2023-04-18T00:30:09.668Z,99.60
2023-04-18T00:32:38.202Z,99.50
2023-04-18T00:35:06.135Z,99.50
2023-04-18T00:37:33.245Z,99.50
2023-04-18T00:40:00.127Z,99.40
2023-04-18T00:42:28.874Z,99.20
2023-04-18T00:44:55.991Z,99.00
2023-04-18T00:47:23.265Z,98.90
2023-04-18T00:49:50.630Z,98.70
2023-04-18T00:52:18.746Z,98.70
2023-04-18T00:54:47.271Z,98.70
2023-04-18T00:57:15.087Z,98.70
2023-04-18T00:59:42.956Z,98.60
2023-04-18T01:02:09.911Z,98.70
2023-04-18T01:04:37.308Z,98.70
2023-04-18T01:07:05.143Z,98.80
2023-04-18T01:09:32.174Z,98.90
2023-04-18T01:11:59.431Z,98.90
2023-04-18T01:14:26.396Z,99.10
2023-04-18T01:16:53.528Z,99.30
2023-04-18T01:19:20.803Z,99.10
2023-04-18T01:21:47.994Z,99.00
2023-04-18T01:24:17.678Z,98.90
2023-04-18T01:26:49.387Z,99.00
2023-04-18T01:29:16.582Z,99.00
2023-04-18T01:31:43.537Z,98.80
2023-04-18T01:34:10.956Z,98.90
2023-04-18T01:36:39.107Z,98.80
2023-04-18T01:39:07.161Z,98.80
2023-04-18T01:41:34.100Z,98.60
2023-04-18T01:44:01.709Z,98.90
2023-04-18T01:46:29.354Z,99.10
2023-04-18T01:48:57.523Z,98.60
2023-04-18T01:51:24.598Z,98.80
2023-04-18T01:53:53.799Z,98.70
2023-04-18T01:56:21.794Z,99.00
2023-04-18T01:58:48.881Z,99.30
2023-04-18T02:01:16.617Z,98.30
2023-04-18T02:03:43.854Z,98.40
2023-04-18T02:06:13.292Z,98.30
2023-04-18T02:08:40.709Z,98.40
2023-04-18T02:11:07.828Z,98.30
2023-04-18T02:13:35.222Z,98.20
2023-04-18T02:16:12.667Z,98.60
2023-04-18T02:18:40.158Z,98.40
2023-04-18T02:21:07.336Z,98.90
2023-04-18T02:23:34.347Z,98.10
2023-04-18T02:26:01.235Z,98.20
2023-04-18T02:28:28.183Z,98.20
2023-04-18T02:30:55.160Z,98.20
2023-04-18T02:33:22.161Z,98.30
2023-04-18T02:35:49.092Z,98.40
2023-04-18T02:38:17.467Z,99.00
2023-04-18T02:40:44.311Z,98.40
2023-04-18T02:43:11.266Z,98.40
2023-04-18T02:45:38.586Z,98.90
2023-04-18T02:48:05.819Z,98.60
2023-04-18T02:50:35.472Z,98.60
2023-04-18T02:53:02.798Z,99.20
2023-04-18T02:55:41.653Z,98.80
2023-04-18T02:58:09.293Z,98.80
2023-04-18T03:00:56.462Z,98.90
2023-04-18T03:04:00.176Z,99.10
2023-04-18T03:07:02.063Z,98.80
2023-04-18T03:09:33.279Z,99.30
2023-04-18T03:12:05.810Z,99.20
2023-04-18T03:14:34.906Z,98.90
2023-04-18T03:17:02.488Z,98.90
2023-04-18T03:19:35.636Z,98.90
2023-04-18T03:22:06.691Z,99.20
2023-04-18T03:24:36.443Z,99.00
2023-04-18T03:27:06.102Z,99.40
2023-04-18T03:29:33.608Z,99.20
2023-04-18T03:32:01.283Z,99.60
2023-04-18T03:34:29.395Z,99.40
2023-04-18T03:36:56.758Z,99.40
2023-04-18T03:39:24.815Z,99.40
2023-04-18T03:41:53.024Z,99.30
2023-04-18T03:44:20.304Z,99.40
2023-04-18T03:46:47.360Z,99.20
2023-04-18T03:49:14.466Z,99.80
2023-04-18T03:51:50.046Z,99.60
2023-04-18T03:54:18.472Z,99.70
2023-04-18T03:56:46.005Z,99.60
2023-04-18T03:59:13.951Z,99.90
2023-04-18T04:01:43.952Z,99.60
2023-04-18T04:04:13.100Z,99.80
2023-04-18T04:06:40.527Z,99.80
2023-04-18T04:09:07.799Z,99.90
2023-04-18T04:11:34.776Z,99.90
2023-04-18T04:14:02.193Z,99.90
2023-04-18T04:16:35.492Z,99.90
2023-04-18T04:19:04.594Z,99.90
2023-04-18T04:21:38.104Z,99.90
2023-04-18T04:24:08.007Z,99.90
2023-04-18T04:26:39.570Z,99.90
2023-04-18T04:29:13.805Z,99.90
2023-04-18T04:31:42.679Z,99.90
2023-04-18T04:34:09.755Z,99.90
2023-04-18T04:36:37.532Z,99.90
2023-04-18T04:39:06.660Z,99.90
2023-04-18T04:41:47.180Z,99.90
2023-04-18T04:44:17.794Z,99.90
2023-04-18T04:46:44.948Z,99.90
2023-04-18T04:49:19.131Z,99.90
2023-04-18T04:51:46.261Z,99.90
2023-04-18T04:54:13.627Z,99.90
2023-04-18T04:56:41.097Z,99.90
2023-04-18T04:59:08.080Z,99.90
2023-04-18T05:01:42.891Z,99.90
2023-04-18T05:04:10.060Z,99.90
2023-04-18T05:06:40.044Z,99.90
2023-04-18T05:09:07.437Z,99.90
2023-04-18T05:11:34.505Z,99.90
2023-04-18T05:14:01.519Z,99.90
2023-04-18T05:16:28.502Z,99.90
2023-04-18T05:18:56.599Z,99.90
2023-04-18T05:21:26.038Z,99.90
2023-04-18T05:23:53.155Z,99.90
2023-04-18T05:26:20.854Z,99.90
2023-04-18T05:28:48.162Z,99.90
2023-04-18T05:31:15.131Z,99.90
2023-04-18T05:33:42.416Z,99.90
2023-04-18T05:36:12.209Z,99.90
2023-04-18T05:38:39.180Z,99.90
2023-04-18T05:41:06.156Z,99.90
2023-04-18T05:43:33.257Z,99.90
2023-04-18T05:46:00.401Z,99.90
2023-04-18T05:48:28.197Z,99.90
2023-04-18T05:50:55.200Z,99.90
2023-04-18T05:53:22.233Z,99.90
2023-04-18T05:55:50.158Z,99.90
2023-04-18T05:58:17.257Z,99.90
2023-04-18T06:00:44.393Z,99.90
2023-04-18T06:03:11.783Z,99.90
2023-04-18T06:05:40.970Z,99.90
2023-04-18T06:08:08.240Z,99.90
2023-04-18T06:10:38.499Z,99.90
2023-04-18T06:13:06.176Z,99.90
2023-04-18T06:15:34.297Z,99.90
2023-04-18T06:18:01.289Z,99.90
2023-04-18T06:20:28.263Z,99.90
2023-04-18T06:22:55.258Z,99.90
2023-04-18T06:25:22.237Z,99.90
2023-04-18T06:27:49.303Z,99.90
2023-04-18T06:30:16.335Z,99.90
2023-04-18T06:32:43.565Z,99.90
2023-04-18T06:35:11.011Z,99.90
2023-04-18T06:37:38.188Z,99.90
2023-04-18T06:40:05.951Z,99.90
2023-04-18T06:42:32.996Z,99.90
2023-04-18T06:44:59.973Z,99.90
2023-04-18T06:47:27.117Z,99.90
2023-04-18T06:49:54.489Z,99.90
2023-04-18T06:52:21.403Z,99.70
2023-04-18T06:54:48.353Z,99.70
2023-04-18T06:57:15.882Z,99.90
2023-04-18T06:59:42.803Z,99.90
2023-04-18T07:02:09.838Z,99.40
2023-04-18T07:04:36.859Z,99.30
2023-04-18T07:07:05.205Z,99.50
2023-04-18T07:09:32.670Z,98.80
2023-04-18T07:11:59.646Z,99.30
2023-04-18T07:14:27.512Z,99.20
2023-04-18T07:16:58.956Z,98.70
2023-04-18T07:19:26.368Z,98.60
2023-04-18T07:21:54.879Z,98.70
2023-04-18T07:24:23.621Z,99.00
2023-04-18T07:26:53.784Z,98.60
2023-04-18T07:29:22.013Z,98.30
2023-04-18T07:31:49.390Z,98.00
2023-04-18T07:34:16.485Z,98.40
2023-04-18T07:36:43.637Z,97.90
2023-04-18T07:39:11.230Z,98.40
2023-04-18T07:41:38.143Z,98.00
2023-04-18T07:44:05.462Z,98.10
2023-04-18T07:46:33.941Z,98.10
2023-04-18T07:49:02.374Z,98.10
2023-04-18T07:51:32.375Z,98.10
2023-04-18T07:53:59.691Z,98.60
2023-04-18T07:56:28.344Z,98.60
2023-04-18T07:58:55.665Z,98.40
2023-04-18T08:01:24.682Z,98.00
2023-04-18T08:03:53.612Z,97.70
2023-04-18T08:06:21.453Z,97.20
2023-04-18T08:08:48.529Z,97.60
2023-04-18T08:11:15.426Z,97.60
2023-04-18T08:13:42.448Z,98.10
2023-04-18T08:16:09.542Z,97.40
2023-04-18T08:18:36.662Z,97.20
2023-04-18T08:21:03.998Z,96.30
2023-04-18T08:23:30.963Z,96.00
2023-04-18T08:25:58.091Z,96.10
2023-04-18T08:28:25.238Z,95.60
2023-04-18T08:30:52.187Z,95.70
2023-04-18T08:33:19.168Z,96.20
2023-04-18T08:35:46.162Z,95.70
2023-04-18T08:38:13.437Z,96.10
2023-04-18T08:40:40.434Z,95.70
2023-04-18T08:43:09.411Z,95.50
2023-04-18T08:45:36.990Z,95.90
2023-04-18T08:48:04.357Z,95.20
2023-04-18T08:50:31.978Z,95.30
2023-04-18T08:53:03.693Z,95.30
2023-04-18T08:55:30.780Z,95.20
2023-04-18T08:57:57.738Z,95.20
2023-04-18T09:00:24.819Z,95.50
2023-04-18T09:02:56.816Z,96.20
2023-04-18T09:05:27.856Z,95.80
2023-04-18T09:07:56.881Z,95.30
2023-04-18T09:10:35.035Z,94.70
2023-04-18T09:13:04.288Z,94.20
2023-04-18T09:15:31.915Z,94.40
2023-04-18T09:18:03.271Z,94.70
2023-04-18T09:20:44.489Z,94.50
2023-04-18T09:23:23.417Z,94.10
2023-04-18T09:25:52.448Z,94.00
2023-04-18T09:28:33.435Z,94.00
2023-04-18T09:31:12.895Z,92.40
2023-04-18T09:33:52.721Z,92.30
2023-04-18T09:36:29.209Z,92.90
2023-04-18T09:38:57.160Z,92.40
2023-04-18T09:41:24.806Z,93.00
2023-04-18T09:44:15.735Z,93.20
2023-04-18T09:46:46.610Z,92.20
2023-04-18T09:49:14.874Z,91.00
2023-04-18T09:51:44.372Z,91.10
2023-04-18T09:54:15.874Z,90.90
2023-04-18T09:56:45.921Z,90.20
2023-04-18T09:59:18.678Z,90.00
2023-04-18T10:01:50.874Z,89.50
2023-04-18T10:04:19.421Z,89.40
2023-04-18T10:06:46.867Z,87.50
2023-04-18T10:09:16.052Z,87.30
2023-04-18T10:11:44.432Z,88.10
2023-04-18T10:14:15.540Z,88.20
2023-04-18T10:16:45.494Z,88.00
2023-04-18T10:19:27.237Z,86.60
2023-04-18T10:22:01.831Z,86.90
2023-04-18T10:24:50.163Z,86.90
2023-04-18T10:27:18.918Z,85.30
2023-04-18T10:29:53.942Z,88.00
2023-04-18T10:32:23.789Z,87.30
2023-04-18T10:34:53.471Z,86.50
2023-04-18T10:37:21.309Z,87.30
2023-04-18T10:39:58.362Z,88.60
2023-04-18T10:42:47.042Z,86.80
2023-04-18T10:45:25.746Z,86.80
2023-04-18T10:48:32.732Z,88.40
2023-04-18T10:51:21.024Z,89.20
2023-04-18T10:53:57.803Z,89.40
2023-04-18T10:56:26.126Z,87.70
2023-04-18T10:58:53.853Z,88.50
2023-04-18T11:01:31.030Z,87.60
2023-04-18T11:04:00.340Z,86.90
2023-04-18T11:06:27.685Z,86.90
2023-04-18T11:09:12.098Z,86.90
2023-04-18T11:11:39.482Z,85.60
2023-04-18T11:14:07.742Z,87.20
2023-04-18T11:16:36.496Z,86.80
2023-04-18T11:19:25.715Z,86.90
2023-04-18T11:21:52.803Z,86.50
2023-04-18T11:24:25.497Z,86.70
2023-04-18T11:26:55.943Z,87.50
2023-04-18T11:29:23.290Z,86.80
2023-04-18T11:31:53.329Z,87.20
2023-04-18T11:34:22.234Z,88.00
2023-04-18T11:36:52.943Z,87.70
2023-04-18T11:39:20.365Z,88.70
2023-04-18T11:41:50.718Z,87.30
2023-04-18T11:44:27.954Z,87.30
2023-04-18T11:46:55.130Z,87.70
2023-04-18T11:49:31.294Z,87.60
2023-04-18T11:52:01.053Z,87.80
2023-04-18T11:54:40.120Z,87.30
2023-04-18T11:57:26.585Z,85.10
2023-04-18T11:59:59.898Z,87.00
2023-04-18T12:02:45.938Z,87.30
2023-04-18T12:05:25.685Z,85.80
2023-04-18T12:07:53.246Z,87.00
2023-04-18T12:10:20.080Z,87.60
2023-04-18T12:12:56.056Z,87.40
2023-04-18T12:15:28.253Z,87.90
2023-04-18T12:18:05.031Z,88.10
2023-04-18T12:20:50.679Z,86.10
2023-04-18T12:23:35.516Z,86.60
2023-04-18T12:26:08.735Z,86.00
2023-04-18T12:28:35.830Z,85.20
2023-04-18T12:31:05.947Z,85.70
2023-04-18T12:33:34.343Z,84.70
2023-04-18T12:36:01.445Z,84.80
2023-04-18T12:38:28.462Z,84.10
2023-04-18T12:40:55.498Z,84.40
2023-04-18T12:43:22.523Z,85.10
2023-04-18T12:45:50.430Z,85.10
2023-04-18T12:48:17.388Z,84.70
2023-04-18T12:50:44.395Z,82.50
2023-04-18T12:53:11.406Z,83.00
2023-04-18T12:55:38.436Z,83.30
2023-04-18T12:58:05.450Z,83.30
2023-04-18T13:00:33.171Z,84.20
2023-04-18T13:03:00.914Z,84.10
2023-04-18T13:05:33.068Z,84.50
2023-04-18T13:10:32.269Z,82.30
2023-04-18T13:12:59.171Z,81.60
2023-04-18T13:15:27.562Z,80.20
2023-04-18T13:17:58.479Z,80.10
2023-04-18T13:20:25.684Z,80.50
2023-04-18T13:22:52.607Z,80.80
2023-04-18T13:25:19.639Z,81.50
2023-04-18T13:27:46.993Z,82.40
2023-04-18T13:30:14.100Z,83.40
2023-04-18T13:32:42.663Z,84.10
2023-04-18T13:35:13.597Z,84.50
2023-04-18T13:37:40.815Z,85.00
2023-04-18T13:40:08.602Z,85.30
2023-04-18T13:42:39.395Z,83.90
2023-04-18T13:45:07.883Z,83.20
2023-04-18T13:47:35.815Z,82.50
2023-04-18T13:50:03.029Z,82.00
2023-04-18T13:52:29.903Z,82.30
2023-04-18T13:54:56.971Z,82.90
2023-04-18T13:57:23.930Z,82.80
2023-04-18T13:59:50.922Z,83.10
2023-04-18T14:02:18.153Z,83.60
2023-04-18T14:04:45.227Z,84.00
2023-04-18T14:07:12.416Z,84.20
2023-04-18T14:09:39.752Z,84.40
2023-04-18T14:12:07.160Z,84.80
2023-04-18T14:14:34.153Z,85.10
2023-04-18T14:17:01.231Z,86.30
2023-04-18T14:19:28.447Z,86.10
2023-04-18T14:21:55.433Z,86.20
2023-04-18T14:24:22.608Z,86.70
2023-04-18T14:26:49.519Z,86.70
2023-04-18T14:29:16.975Z,86.90
2023-04-18T14:31:44.110Z,87.10
2023-04-18T14:34:11.114Z,87.30
2023-04-18T14:36:38.125Z,87.50
2023-04-18T14:39:05.539Z,88.00
2023-04-18T14:41:33.026Z,88.40
2023-04-18T14:44:00.154Z,89.60
2023-04-18T14:46:28.278Z,88.30
2023-04-18T14:48:55.367Z,87.20
2023-04-18T14:51:23.425Z,86.90
2023-04-18T14:53:50.391Z,86.90
2023-04-18T14:56:20.993Z,85.60
2023-04-18T14:58:48.400Z,85.80
2023-04-18T15:01:17.509Z,85.20
2023-04-18T15:03:45.447Z,84.80
2023-04-18T15:06:14.786Z,84.90
2023-04-18T15:08:44.090Z,85.20
2023-04-18T15:11:11.280Z,85.90
2023-04-18T15:13:38.240Z,86.60
2023-04-18T15:16:06.491Z,86.50
2023-04-18T15:18:33.404Z,86.00
2023-04-18T15:21:00.572Z,86.50
2023-04-18T15:23:28.263Z,85.50
2023-04-18T15:25:55.291Z,85.90
2023-04-18T15:28:22.723Z,83.60
2023-04-18T15:30:50.121Z,83.50
2023-04-18T15:33:19.077Z,82.50
2023-04-18T15:35:47.633Z,81.50
2023-04-18T15:38:14.908Z,81.50
2023-04-18T15:40:43.384Z,80.40
2023-04-18T15:43:10.444Z,78.20
2023-04-18T15:45:37.550Z,77.40
2023-04-18T15:48:04.952Z,78.00
2023-04-18T15:50:33.562Z,79.80
2023-04-18T15:53:02.563Z,78.80
2023-04-18T15:55:30.004Z,79.70
2023-04-18T15:57:59.990Z,79.20
2023-04-18T16:00:27.107Z,77.70
2023-04-18T16:02:54.069Z,77.30
2023-04-18T16:05:21.418Z,77.90
2023-04-18T16:07:48.331Z,77.50
2023-04-18T16:10:15.477Z,77.10
2023-04-18T16:12:42.520Z,75.20
2023-04-18T16:15:11.199Z,74.40
2023-04-18T16:17:38.432Z,74.80
2023-04-18T16:20:09.064Z,75.60
2023-04-18T16:22:37.464Z,76.30
2023-04-18T16:25:06.811Z,76.50
2023-04-18T16:27:33.986Z,76.10
2023-04-18T16:30:01.230Z,75.60
2023-04-18T16:32:28.280Z,75.00
2023-04-18T16:34:55.332Z,75.80
2023-04-18T16:37:22.279Z,76.20
2023-04-18T16:39:49.188Z,76.40
2023-04-18T16:42:16.581Z,76.40
2023-04-18T16:44:45.345Z,76.70
2023-04-18T16:47:12.797Z,76.60
2023-04-18T16:49:41.121Z,76.90
2023-04-18T16:52:08.463Z,76.70
2023-04-18T16:54:35.818Z,76.90
2023-04-18T16:57:03.394Z,76.50
2023-04-18T16:59:30.588Z,77.30
2023-04-18T17:01:57.811Z,77.10
2023-04-18T17:04:26.912Z,76.90
2023-04-18T17:06:54.123Z,76.10
2023-04-18T17:09:21.293Z,75.50
2023-04-18T17:11:48.670Z,75.00
2023-04-18T17:14:17.462Z,74.50
2023-04-18T17:16:44.587Z,74.50
2023-04-18T17:19:11.810Z,74.50
2023-04-18T17:21:39.293Z,74.80
2023-04-18T17:24:07.082Z,75.10
2023-04-18T17:26:37.033Z,75.50
2023-04-18T17:29:04.635Z,76.00
2023-04-18T17:31:32.591Z,76.60
2023-04-18T17:34:00.798Z,76.90
2023-04-18T17:36:27.846Z,78.00
2023-04-18T17:38:55.122Z,78.50
2023-04-18T17:41:22.424Z,79.30
2023-04-18T17:43:53.605Z,80.00
2023-04-18T17:46:20.719Z,81.70
2023-04-18T17:48:47.638Z,82.30
2023-04-18T17:51:16.377Z,82.50
2023-04-18T17:53:43.377Z,82.00
2023-04-18T17:56:10.398Z,82.30
2023-04-18T17:58:37.380Z,82.90
2023-04-18T18:01:13.364Z,83.40
2023-04-18T18:03:40.773Z,83.50
2023-04-18T18:06:11.239Z,83.80
2023-04-18T18:08:39.003Z,83.70
2023-04-18T18:11:06.231Z,84.10
2023-04-18T18:13:33.260Z,83.80
2023-04-18T18:16:01.911Z,83.80
2023-04-18T18:18:30.096Z,86.30
2023-04-18T18:20:58.119Z,84.70
2023-04-18T18:23:25.621Z,85.30
2023-04-18T18:25:52.606Z,86.00
2023-04-18T18:28:19.590Z,85.40
2023-04-18T18:30:46.501Z,86.30
2023-04-18T18:33:13.835Z,85.50
2023-04-18T18:35:40.745Z,85.80
2023-04-18T18:38:07.765Z,86.60
2023-04-18T18:40:34.690Z,86.00
2023-04-18T18:43:02.684Z,87.40
2023-04-18T18:45:29.751Z,86.90
2023-04-18T18:47:56.957Z,87.00
2023-04-18T18:50:23.979Z,88.50
2023-04-18T18:52:50.943Z,88.30
2023-04-18T18:55:18.597Z,88.30
2023-04-18T18:57:45.598Z,89.10
2023-04-18T19:00:13.388Z,90.10
2023-04-18T19:02:40.396Z,90.00
2023-04-18T19:05:08.743Z,89.70
2023-04-18T19:07:35.671Z,90.30
2023-04-18T19:10:03.432Z,90.30
2023-04-18T19:12:30.336Z,90.60
2023-04-18T19:14:57.323Z,90.60
2023-04-18T19:17:24.823Z,91.00
2023-04-18T19:19:53.516Z,91.20
2023-04-18T19:22:20.543Z,91.30
2023-04-18T19:24:47.577Z,91.20
2023-04-18T19:27:14.574Z,91.50
2023-04-18T19:29:41.585Z,91.20
2023-04-18T19:32:08.680Z,91.40
2023-04-18T19:34:36.112Z,92.10
2023-04-18T19:37:03.790Z,91.80
2023-04-18T19:39:31.046Z,91.70
2023-04-18T19:41:57.953Z,92.40
2023-04-18T19:44:25.142Z,92.20
2023-04-18T19:46:52.017Z,92.30
2023-04-18T19:49:19.190Z,92.40
2023-04-18T19:51:46.102Z,92.50
2023-04-18T19:54:13.358Z,92.50
2023-04-18T19:56:40.408Z,92.80
2023-04-18T19:59:08.555Z,92.60
2023-04-18T20:01:35.941Z,92.70
2023-04-18T20:04:03.272Z,92.80
2023-04-18T20:06:31.108Z,93.30
2023-04-18T20:08:58.168Z,92.70
2023-04-18T20:11:25.239Z,93.30
2023-04-18T20:13:55.398Z,93.00
2023-04-18T20:16:23.647Z,93.00
2023-04-18T20:18:54.206Z,94.00
2023-04-18T20:21:21.943Z,93.40
2023-04-18T20:23:50.513Z,93.40
2023-04-18T20:26:17.811Z,94.20
2023-04-18T20:28:44.746Z,94.00
2023-04-18T20:31:12.735Z,93.30
2023-04-18T20:33:39.831Z,93.70
2023-04-18T20:36:07.512Z,93.60
2023-04-18T20:38:34.613Z,93.70
2023-04-18T20:41:02.088Z,93.50
2023-04-18T20:43:29.269Z,93.50
2023-04-18T20:45:57.925Z,93.90
2023-04-18T20:48:25.075Z,93.70
2023-04-18T20:50:52.113Z,94.00
2023-04-18T20:53:21.123Z,94.30
2023-04-18T20:55:48.884Z,95.00
2023-04-18T20:58:16.107Z,94.30
2023-04-18T21:00:44.542Z,94.50
2023-04-18T21:03:15.708Z,94.60
2023-04-18T21:05:44.563Z,94.90
2023-04-18T21:08:11.576Z,95.00
2023-04-18T21:10:39.918Z,94.80
2023-04-18T21:13:07.142Z,94.90
2023-04-18T21:15:35.847Z,94.70
2023-04-18T21:18:03.012Z,95.80
2023-04-18T21:20:30.925Z,95.40
2023-04-18T21:22:57.864Z,94.90
2023-04-18T21:25:24.842Z,95.40
2023-04-18T21:27:54.707Z,95.50
2023-04-18T21:30:35.923Z,95.80
2023-04-18T21:33:03.416Z,95.70
2023-04-18T21:35:30.470Z,96.00
2023-04-18T21:37:58.383Z,95.60
2023-04-18T21:40:26.740Z,95.60
2023-04-18T21:42:53.700Z,95.70
2023-04-18T21:45:20.902Z,95.80
2023-04-18T21:47:48.655Z,95.90
2023-04-18T21:50:16.091Z,96.40
2023-04-18T21:52:43.247Z,96.20
2023-04-18T21:55:10.955Z,96.10
2023-04-18T21:57:37.863Z,96.10
2023-04-18T22:00:08.401Z,96.20
2023-04-18T22:02:37.119Z,96.30
2023-04-18T22:05:04.529Z,96.00
2023-04-18T22:07:32.313Z,96.20
2023-04-18T22:10:00.376Z,96.90
2023-04-18T22:12:27.526Z,96.60
2023-04-18T22:14:54.740Z,96.30
2023-04-18T22:17:21.894Z,96.30
2023-04-18T22:19:50.433Z,96.30
2023-04-18T22:22:17.428Z,96.30
2023-04-18T22:24:46.797Z,96.10
2023-04-18T22:27:14.597Z,96.00
2023-04-18T22:29:41.475Z,96.20
2023-04-18T22:32:08.529Z,96.90
2023-04-18T22:34:35.608Z,96.50
2023-04-18T22:37:02.498Z,96.80
2023-04-18T22:39:31.123Z,96.50
2023-04-18T22:41:58.029Z,96.60
2023-04-18T22:44:25.350Z,96.60
2023-04-18T22:46:54.576Z,97.00
2023-04-18T22:49:22.197Z,97.00
2023-04-18T22:51:49.695Z,97.00
2023-04-18T22:54:16.715Z,97.10
2023-04-18T22:56:43.777Z,97.30
2023-04-18T22:59:10.668Z,97.40
2023-04-18T23:01:37.735Z,97.40
2023-04-18T23:04:05.081Z,97.50
2023-04-18T23:06:32.499Z,97.40
2023-04-18T23:08:59.465Z,97.20
2023-04-18T23:11:26.827Z,97.30
2023-04-18T23:13:53.739Z,97.50
2023-04-18T23:16:21.020Z,97.40
2023-04-18T23:18:48.328Z,97.50
2023-04-18T23:21:15.602Z,97.50
2023-04-18T23:23:42.607Z,97.90
2023-04-18T23:26:17.104Z,98.60
2023-04-18T23:28:44.102Z,98.00
2023-04-18T23:31:11.197Z,98.10
2023-04-18T23:33:38.207Z,98.00
2023-04-18T23:36:06.519Z,98.50
2023-04-18T23:38:34.127Z,98.60
2023-04-18T23:41:01.079Z,98.30
2023-04-18T23:43:27.985Z,98.40
2023-04-18T23:45:54.918Z,98.50
2023-04-18T23:48:22.072Z,99.10
2023-04-18T23:50:52.109Z,98.90
2023-04-18T23:53:21.533Z,98.90
2023-04-18T23:55:51.085Z,98.90
2023-04-18T23:58:18.221Z,99.30
